sensor_id;sensor_type;location;lat;lon;timestamp;temperature;humidity
78289;DHT22;67539;48.752;12.922;2023-04-07T00:01:04;0.10;94.00
78289;DHT22;67539;48.752;12.922;2023-04-07T00:03:32;0.10;94.40
78289;DHT22;67539;48.752;12.922;2023-04-07T00:06:01;0.00;94.50
78289;DHT22;67539;48.752;12.922;2023-04-07T00:08:29;0.00;94.70
78289;DHT22;67539;48.752;12.922;2023-04-07T00:10:58;0.00;94.90
78289;DHT22;67539;48.752;12.922;2023-04-07T00:13:26;0.00;94.90
78289;DHT22;67539;48.752;12.922;2023-04-07T00:15:56;0.10;95.10
78289;DHT22;67539;48.752;12.922;2023-04-07T00:18:24;0.00;94.90
78289;DHT22;67539;48.752;12.922;2023-04-07T00:20:53;0.00;95.00
78289;DHT22;67539;48.752;12.922;2023-04-07T00:23:20;0.00;95.20
78289;DHT22;67539;48.752;12.922;2023-04-07T00:25:49;0.00;95.30
78289;DHT22;67539;48.752;12.922;2023-04-07T00:28:18;0.00;95.40
78289;DHT22;67539;48.752;12.922;2023-04-07T00:30:46;0.00;95.60
78289;DHT22;67539;48.752;12.922;2023-04-07T00:33:14;0.00;95.60
78289;DHT22;67539;48.752;12.922;2023-04-07T00:35:42;-0.10;95.60
78289;DHT22;67539;48.752;12.922;2023-04-07T00:38:10;-0.10;95.70
78289;DHT22;67539;48.752;12.922;2023-04-07T00:40:38;-0.10;95.60
78289;DHT22;67539;48.752;12.922;2023-04-07T00:43:07;-0.10;95.70
78289;DHT22;67539;48.752;12.922;2023-04-07T00:45:36;-0.10;95.60
78289;DHT22;67539;48.752;12.922;2023-04-07T00:48:05;-0.10;95.60
78289;DHT22;67539;48.752;12.922;2023-04-07T00:50:33;-0.20;95.50
78289;DHT22;67539;48.752;12.922;2023-04-07T00:53:01;-0.20;95.70
78289;DHT22;67539;48.752;12.922;2023-04-07T00:55:29;-0.20;95.60
78289;DHT22;67539;48.752;12.922;2023-04-07T00:57:57;-0.20;95.80
78289;DHT22;67539;48.752;12.922;2023-04-07T01:00:26;-0.20;95.70
78289;DHT22;67539;48.752;12.922;2023-04-07T01:02:58;-0.20;95.90
78289;DHT22;67539;48.752;12.922;2023-04-07T01:05:35;-0.30;95.90
78289;DHT22;67539;48.752;12.922;2023-04-07T01:08:11;-0.30;96.00
78289;DHT22;67539;48.752;12.922;2023-04-07T01:10:49;-0.20;96.10
78289;DHT22;67539;48.752;12.922;2023-04-07T01:13:22;-0.20;95.60
78289;DHT22;67539;48.752;12.922;2023-04-07T01:16:04;-0.10;95.40
78289;DHT22;67539;48.752;12.922;2023-04-07T01:18:44;-0.10;95.20
78289;DHT22;67539;48.752;12.922;2023-04-07T01:21:16;-0.10;95.30
78289;DHT22;67539;48.752;12.922;2023-04-07T01:23:51;-0.20;95.20
78289;DHT22;67539;48.752;12.922;2023-04-07T01:26:28;-0.20;95.10
78289;DHT22;67539;48.752;12.922;2023-04-07T01:29:21;-0.20;95.10
78289;DHT22;67539;48.752;12.922;2023-04-07T01:31:54;-0.20;95.00
78289;DHT22;67539;48.752;12.922;2023-04-07T01:34:23;-0.20;94.90
78289;DHT22;67539;48.752;12.922;2023-04-07T01:36:53;-0.30;94.80
78289;DHT22;67539;48.752;12.922;2023-04-07T01:39:22;-0.30;94.80
78289;DHT22;67539;48.752;12.922;2023-04-07T01:41:52;-0.30;95.00
78289;DHT22;67539;48.752;12.922;2023-04-07T01:44:23;-0.30;95.10
78289;DHT22;67539;48.752;12.922;2023-04-07T01:46:51;-0.30;95.20
78289;DHT22;67539;48.752;12.922;2023-04-07T01:49:22;-0.30;95.00
78289;DHT22;67539;48.752;12.922;2023-04-07T01:51:51;-0.30;95.20
78289;DHT22;67539;48.752;12.922;2023-04-07T01:54:19;-0.30;95.10
78289;DHT22;67539;48.752;12.922;2023-04-07T01:56:48;-0.30;95.40
78289;DHT22;67539;48.752;12.922;2023-04-07T01:59:16;-0.30;95.30
78289;DHT22;67539;48.752;12.922;2023-04-07T02:01:46;-0.30;95.30
78289;DHT22;67539;48.752;12.922;2023-04-07T02:04:21;-0.30;95.30
78289;DHT22;67539;48.752;12.922;2023-04-07T02:06:55;-0.30;95.40
78289;DHT22;67539;48.752;12.922;2023-04-07T02:09:35;-0.30;95.40
78289;DHT22;67539;48.752;12.922;2023-04-07T02:12:06;-0.30;95.50
78289;DHT22;67539;48.752;12.922;2023-04-07T02:14:39;-0.30;95.60
78289;DHT22;67539;48.752;12.922;2023-04-07T02:17:12;-0.40;95.60
78289;DHT22;67539;48.752;12.922;2023-04-07T02:19:42;-0.40;95.80
78289;DHT22;67539;48.752;12.922;2023-04-07T02:22:11;-0.40;95.90
78289;DHT22;67539;48.752;12.922;2023-04-07T02:24:40;-0.40;96.30
78289;DHT22;67539;48.752;12.922;2023-04-07T02:27:09;-0.40;96.00
78289;DHT22;67539;48.752;12.922;2023-04-07T02:29:37;-0.40;96.00
78289;DHT22;67539;48.752;12.922;2023-04-07T02:32:05;-0.40;96.10
78289;DHT22;67539;48.752;12.922;2023-04-07T02:34:35;-0.40;96.20
78289;DHT22;67539;48.752;12.922;2023-04-07T02:37:04;-0.50;96.10
78289;DHT22;67539;48.752;12.922;2023-04-07T02:39:33;-0.50;96.30
78289;DHT22;67539;48.752;12.922;2023-04-07T02:42:01;-0.60;96.40
78289;DHT22;67539;48.752;12.922;2023-04-07T02:44:28;-0.60;96.50
78289;DHT22;67539;48.752;12.922;2023-04-07T02:46:57;-0.60;96.60
78289;DHT22;67539;48.752;12.922;2023-04-07T02:49:25;-0.60;96.90
78289;DHT22;67539;48.752;12.922;2023-04-07T02:51:54;-0.70;96.70
78289;DHT22;67539;48.752;12.922;2023-04-07T02:54:22;-0.70;96.70
78289;DHT22;67539;48.752;12.922;2023-04-07T02:56:50;-0.70;96.90
78289;DHT22;67539;48.752;12.922;2023-04-07T02:59:18;-0.80;97.00
78289;DHT22;67539;48.752;12.922;2023-04-07T03:01:46;-0.80;97.20
78289;DHT22;67539;48.752;12.922;2023-04-07T03:04:15;-0.90;97.00
78289;DHT22;67539;48.752;12.922;2023-04-07T03:06:44;-0.90;97.40
78289;DHT22;67539;48.752;12.922;2023-04-07T03:09:15;-0.90;97.50
78289;DHT22;67539;48.752;12.922;2023-04-07T03:11:43;-0.90;97.30
78289;DHT22;67539;48.752;12.922;2023-04-07T03:14:12;-1.00;97.00
78289;DHT22;67539;48.752;12.922;2023-04-07T03:16:44;-1.00;96.80
78289;DHT22;67539;48.752;12.922;2023-04-07T03:19:13;-1.10;96.80
78289;DHT22;67539;48.752;12.922;2023-04-07T03:21:45;-1.10;96.80
78289;DHT22;67539;48.752;12.922;2023-04-07T03:24:14;-1.10;97.00
78289;DHT22;67539;48.752;12.922;2023-04-07T03:26:45;-1.20;96.90
78289;DHT22;67539;48.752;12.922;2023-04-07T03:29:20;-1.30;96.80
78289;DHT22;67539;48.752;12.922;2023-04-07T03:31:48;-1.30;96.70
78289;DHT22;67539;48.752;12.922;2023-04-07T03:34:20;-1.40;97.00
78289;DHT22;67539;48.752;12.922;2023-04-07T03:36:48;-1.40;97.00
78289;DHT22;67539;48.752;12.922;2023-04-07T03:39:18;-1.40;97.20
78289;DHT22;67539;48.752;12.922;2023-04-07T03:41:46;-1.40;97.00
78289;DHT22;67539;48.752;12.922;2023-04-07T03:44:14;-1.40;97.20
78289;DHT22;67539;48.752;12.922;2023-04-07T03:46:42;-1.50;97.30
78289;DHT22;67539;48.752;12.922;2023-04-07T03:49:11;-1.50;97.40
78289;DHT22;67539;48.752;12.922;2023-04-07T03:51:39;-1.50;97.60
78289;DHT22;67539;48.752;12.922;2023-04-07T03:54:13;-1.50;97.70
78289;DHT22;67539;48.752;12.922;2023-04-07T03:56:44;-1.50;97.80
78289;DHT22;67539;48.752;12.922;2023-04-07T03:59:15;-1.50;97.90
78289;DHT22;67539;48.752;12.922;2023-04-07T04:01:57;-1.50;98.00
78289;DHT22;67539;48.752;12.922;2023-04-07T04:04:25;-1.50;98.20
78289;DHT22;67539;48.752;12.922;2023-04-07T04:06:54;-1.40;98.40
78289;DHT22;67539;48.752;12.922;2023-04-07T04:09:33;-1.40;98.50
78289;DHT22;67539;48.752;12.922;2023-04-07T04:12:03;-1.40;98.50
78289;DHT22;67539;48.752;12.922;2023-04-07T04:14:35;-1.40;98.80
78289;DHT22;67539;48.752;12.922;2023-04-07T04:17:05;-1.40;98.80
78289;DHT22;67539;48.752;12.922;2023-04-07T04:19:38;-1.40;98.90
78289;DHT22;67539;48.752;12.922;2023-04-07T04:22:20;-1.40;99.20
78289;DHT22;67539;48.752;12.922;2023-04-07T04:24:52;-1.40;99.10
78289;DHT22;67539;48.752;12.922;2023-04-07T04:27:23;-1.30;99.30
78289;DHT22;67539;48.752;12.922;2023-04-07T04:29:58;-1.30;99.30
78289;DHT22;67539;48.752;12.922;2023-04-07T04:32:34;-1.30;99.40
78289;DHT22;67539;48.752;12.922;2023-04-07T04:35:03;-1.20;99.70
78289;DHT22;67539;48.752;12.922;2023-04-07T04:37:40;-1.30;99.70
78289;DHT22;67539;48.752;12.922;2023-04-07T04:40:11;-1.20;99.60
78289;DHT22;67539;48.752;12.922;2023-04-07T04:42:43;-1.20;99.80
78289;DHT22;67539;48.752;12.922;2023-04-07T04:45:12;-1.30;99.60
78289;DHT22;67539;48.752;12.922;2023-04-07T04:47:44;-1.20;99.80
78289;DHT22;67539;48.752;12.922;2023-04-07T04:50:12;-1.20;99.50
78289;DHT22;67539;48.752;12.922;2023-04-07T04:52:43;-1.30;99.30
78289;DHT22;67539;48.752;12.922;2023-04-07T04:55:18;-1.30;99.40
78289;DHT22;67539;48.752;12.922;2023-04-07T04:57:48;-1.40;99.20
78289;DHT22;67539;48.752;12.922;2023-04-07T05:00:22;-1.40;99.00
78289;DHT22;67539;48.752;12.922;2023-04-07T05:02:56;-1.40;98.80
78289;DHT22;67539;48.752;12.922;2023-04-07T05:05:25;-1.50;98.80
78289;DHT22;67539;48.752;12.922;2023-04-07T05:07:54;-1.50;98.70
78289;DHT22;67539;48.752;12.922;2023-04-07T05:10:24;-1.60;98.70
78289;DHT22;67539;48.752;12.922;2023-04-07T05:12:55;-1.60;98.90
78289;DHT22;67539;48.752;12.922;2023-04-07T05:15:22;-1.50;98.90
78289;DHT22;67539;48.752;12.922;2023-04-07T05:17:50;-1.50;98.90
78289;DHT22;67539;48.752;12.922;2023-04-07T05:20:22;-1.50;99.00
78289;DHT22;67539;48.752;12.922;2023-04-07T05:22:51;-1.50;99.20
78289;DHT22;67539;48.752;12.922;2023-04-07T05:25:22;-1.40;99.30
78289;DHT22;67539;48.752;12.922;2023-04-07T05:27:56;-1.30;99.40
78289;DHT22;67539;48.752;12.922;2023-04-07T05:30:25;-1.30;99.30
78289;DHT22;67539;48.752;12.922;2023-04-07T05:32:53;-1.30;99.50
78289;DHT22;67539;48.752;12.922;2023-04-07T05:35:34;-1.20;99.60
78289;DHT22;67539;48.752;12.922;2023-04-07T05:38:02;-1.20;99.70
78289;DHT22;67539;48.752;12.922;2023-04-07T05:40:31;-1.10;99.70
78289;DHT22;67539;48.752;12.922;2023-04-07T05:43:03;-1.10;99.80
78289;DHT22;67539;48.752;12.922;2023-04-07T05:45:32;-1.00;99.90
78289;DHT22;67539;48.752;12.922;2023-04-07T05:48:01;-0.90;99.90
78289;DHT22;67539;48.752;12.922;2023-04-07T05:50:37;-0.80;99.90
78289;DHT22;67539;48.752;12.922;2023-04-07T05:53:10;-0.80;99.90
78289;DHT22;67539;48.752;12.922;2023-04-07T05:55:40;-0.70;99.90
78289;DHT22;67539;48.752;12.922;2023-04-07T05:58:13;-0.60;99.90
78289;DHT22;67539;48.752;12.922;2023-04-07T06:00:47;-0.50;99.90
78289;DHT22;67539;48.752;12.922;2023-04-07T06:03:17;-0.50;99.90
78289;DHT22;67539;48.752;12.922;2023-04-07T06:06:01;-0.40;99.90
78289;DHT22;67539;48.752;12.922;2023-04-07T06:08:29;-0.30;99.90
78289;DHT22;67539;48.752;12.922;2023-04-07T06:10:57;-0.20;99.90
78289;DHT22;67539;48.752;12.922;2023-04-07T06:13:27;-0.10;99.90
78289;DHT22;67539;48.752;12.922;2023-04-07T06:15:55;0.00;99.90
78289;DHT22;67539;48.752;12.922;2023-04-07T06:18:24;0.10;99.90
78289;DHT22;67539;48.752;12.922;2023-04-07T06:20:52;0.20;99.90
78289;DHT22;67539;48.752;12.922;2023-04-07T06:23:20;0.30;99.90
78289;DHT22;67539;48.752;12.922;2023-04-07T06:25:48;0.40;99.90
78289;DHT22;67539;48.752;12.922;2023-04-07T06:28:18;0.50;99.90
78289;DHT22;67539;48.752;12.922;2023-04-07T06:30:49;0.60;99.90
78289;DHT22;67539;48.752;12.922;2023-04-07T06:33:17;0.70;99.80
78289;DHT22;67539;48.752;12.922;2023-04-07T06:35:45;0.80;99.60
78289;DHT22;67539;48.752;12.922;2023-04-07T06:38:13;0.90;99.50
78289;DHT22;67539;48.752;12.922;2023-04-07T06:40:41;1.00;99.40
78289;DHT22;67539;48.752;12.922;2023-04-07T06:43:09;1.10;99.50
78289;DHT22;67539;48.752;12.922;2023-04-07T06:45:42;1.20;99.30
78289;DHT22;67539;48.752;12.922;2023-04-07T06:48:12;1.30;99.20
78289;DHT22;67539;48.752;12.922;2023-04-07T06:50:39;1.40;99.10
78289;DHT22;67539;48.752;12.922;2023-04-07T06:53:07;1.50;99.00
78289;DHT22;67539;48.752;12.922;2023-04-07T06:55:36;1.70;99.20
78289;DHT22;67539;48.752;12.922;2023-04-07T06:58:03;1.80;99.10
78289;DHT22;67539;48.752;12.922;2023-04-07T07:00:32;1.90;99.00
78289;DHT22;67539;48.752;12.922;2023-04-07T07:03:00;2.00;99.00
78289;DHT22;67539;48.752;12.922;2023-04-07T07:05:30;2.20;98.70
78289;DHT22;67539;48.752;12.922;2023-04-07T07:07:58;2.30;98.00
78289;DHT22;67539;48.752;12.922;2023-04-07T07:10:26;2.40;97.60
78289;DHT22;67539;48.752;12.922;2023-04-07T07:12:54;2.50;97.50
78289;DHT22;67539;48.752;12.922;2023-04-07T07:15:22;2.60;97.50
78289;DHT22;67539;48.752;12.922;2023-04-07T07:17:50;2.80;97.20
78289;DHT22;67539;48.752;12.922;2023-04-07T07:20:18;2.90;96.20
78289;DHT22;67539;48.752;12.922;2023-04-07T07:22:50;3.00;96.40
78289;DHT22;67539;48.752;12.922;2023-04-07T07:25:18;3.20;96.00
78289;DHT22;67539;48.752;12.922;2023-04-07T07:27:46;3.30;95.90
78289;DHT22;67539;48.752;12.922;2023-04-07T07:30:17;3.40;96.10
78289;DHT22;67539;48.752;12.922;2023-04-07T07:32:46;3.50;96.10
78289;DHT22;67539;48.752;12.922;2023-04-07T07:35:14;3.60;96.10
78289;DHT22;67539;48.752;12.922;2023-04-07T07:37:42;3.80;96.00
78289;DHT22;67539;48.752;12.922;2023-04-07T07:40:12;3.90;95.80
78289;DHT22;67539;48.752;12.922;2023-04-07T07:42:40;4.10;95.30
78289;DHT22;67539;48.752;12.922;2023-04-07T07:45:08;4.20;94.50
78289;DHT22;67539;48.752;12.922;2023-04-07T07:47:37;4.40;94.40
78289;DHT22;67539;48.752;12.922;2023-04-07T07:50:06;4.50;94.10
78289;DHT22;67539;48.752;12.922;2023-04-07T07:52:34;4.70;93.40
78289;DHT22;67539;48.752;12.922;2023-04-07T07:55:02;4.80;92.00
78289;DHT22;67539;48.752;12.922;2023-04-07T07:57:32;5.00;92.50
78289;DHT22;67539;48.752;12.922;2023-04-07T08:00:00;5.10;92.60
78289;DHT22;67539;48.752;12.922;2023-04-07T08:02:38;5.20;92.00
78289;DHT22;67539;48.752;12.922;2023-04-07T08:05:07;5.30;92.00
78289;DHT22;67539;48.752;12.922;2023-04-07T08:07:35;5.40;90.70
78289;DHT22;67539;48.752;12.922;2023-04-07T08:10:04;5.60;90.70
78289;DHT22;67539;48.752;12.922;2023-04-07T08:12:34;5.70;90.30
78289;DHT22;67539;48.752;12.922;2023-04-07T08:15:03;5.80;85.90
78289;DHT22;67539;48.752;12.922;2023-04-07T08:17:31;5.90;86.80
78289;DHT22;67539;48.752;12.922;2023-04-07T08:20:00;6.00;84.50
78289;DHT22;67539;48.752;12.922;2023-04-07T08:22:29;6.00;83.30
78289;DHT22;67539;48.752;12.922;2023-04-07T08:24:57;6.20;83.70
78289;DHT22;67539;48.752;12.922;2023-04-07T08:27:25;6.20;81.60
78289;DHT22;67539;48.752;12.922;2023-04-07T08:29:59;6.30;82.10
78289;DHT22;67539;48.752;12.922;2023-04-07T08:32:34;6.30;81.60
78289;DHT22;67539;48.752;12.922;2023-04-07T08:35:02;6.40;79.90
78289;DHT22;67539;48.752;12.922;2023-04-07T08:37:31;6.50;78.30
78289;DHT22;67539;48.752;12.922;2023-04-07T08:39:59;6.60;78.90
78289;DHT22;67539;48.752;12.922;2023-04-07T08:42:29;6.70;79.20
78289;DHT22;67539;48.752;12.922;2023-04-07T08:45:02;6.70;78.30
78289;DHT22;67539;48.752;12.922;2023-04-07T08:47:32;6.70;77.40
78289;DHT22;67539;48.752;12.922;2023-04-07T08:50:02;6.80;80.40
78289;DHT22;67539;48.752;12.922;2023-04-07T08:52:33;6.90;79.20
78289;DHT22;67539;48.752;12.922;2023-04-07T08:55:03;7.00;77.90
78289;DHT22;67539;48.752;12.922;2023-04-07T08:57:33;7.00;77.40
78289;DHT22;67539;48.752;12.922;2023-04-07T09:00:03;7.00;79.70
78289;DHT22;67539;48.752;12.922;2023-04-07T09:02:32;7.10;77.70
78289;DHT22;67539;48.752;12.922;2023-04-07T09:05:03;7.30;78.70
78289;DHT22;67539;48.752;12.922;2023-04-07T09:07:33;7.40;78.20
78289;DHT22;67539;48.752;12.922;2023-04-07T09:10:02;7.50;78.60
78289;DHT22;67539;48.752;12.922;2023-04-07T09:12:31;7.50;77.00
78289;DHT22;67539;48.752;12.922;2023-04-07T09:14:59;7.60;77.00
78289;DHT22;67539;48.752;12.922;2023-04-07T09:17:28;7.60;77.40
78289;DHT22;67539;48.752;12.922;2023-04-07T09:19:57;7.80;77.90
78289;DHT22;67539;48.752;12.922;2023-04-07T09:22:37;7.80;77.20
78289;DHT22;67539;48.752;12.922;2023-04-07T09:25:15;8.00;76.80
78289;DHT22;67539;48.752;12.922;2023-04-07T09:27:57;8.10;77.30
78289;DHT22;67539;48.752;12.922;2023-04-07T09:30:27;8.20;77.90
78289;DHT22;67539;48.752;12.922;2023-04-07T09:32:58;8.40;77.80
78289;DHT22;67539;48.752;12.922;2023-04-07T09:35:26;8.40;74.30
78289;DHT22;67539;48.752;12.922;2023-04-07T09:38:03;8.40;73.70
78289;DHT22;67539;48.752;12.922;2023-04-07T09:40:31;8.40;73.90
78289;DHT22;67539;48.752;12.922;2023-04-07T09:43:00;8.50;73.20
78289;DHT22;67539;48.752;12.922;2023-04-07T09:45:29;8.50;73.20
78289;DHT22;67539;48.752;12.922;2023-04-07T09:48:07;8.60;72.40
78289;DHT22;67539;48.752;12.922;2023-04-07T09:50:39;8.60;71.30
78289;DHT22;67539;48.752;12.922;2023-04-07T09:53:11;8.70;71.60
78289;DHT22;67539;48.752;12.922;2023-04-07T09:55:39;8.60;72.00
78289;DHT22;67539;48.752;12.922;2023-04-07T09:58:11;8.80;72.00
78289;DHT22;67539;48.752;12.922;2023-04-07T10:00:40;8.80;71.70
78289;DHT22;67539;48.752;12.922;2023-04-07T10:03:10;9.00;71.10
78289;DHT22;67539;48.752;12.922;2023-04-07T10:05:38;9.10;71.10
78289;DHT22;67539;48.752;12.922;2023-04-07T10:08:09;9.30;71.30
78289;DHT22;67539;48.752;12.922;2023-04-07T10:10:39;9.40;70.80
78289;DHT22;67539;48.752;12.922;2023-04-07T10:13:08;9.40;67.80
78289;DHT22;67539;48.752;12.922;2023-04-07T10:15:36;9.60;71.50
78289;DHT22;67539;48.752;12.922;2023-04-07T10:18:06;9.70;72.50
78289;DHT22;67539;48.752;12.922;2023-04-07T10:20:38;9.90;66.60
78289;DHT22;67539;48.752;12.922;2023-04-07T10:23:14;10.00;65.20
78289;DHT22;67539;48.752;12.922;2023-04-07T10:25:44;10.00;65.90
78289;DHT22;67539;48.752;12.922;2023-04-07T10:28:15;10.20;67.50
78289;DHT22;67539;48.752;12.922;2023-04-07T10:30:46;10.30;63.40
78289;DHT22;67539;48.752;12.922;2023-04-07T10:33:15;10.30;63.90
78289;DHT22;67539;48.752;12.922;2023-04-07T10:36:03;10.40;62.70
78289;DHT22;67539;48.752;12.922;2023-04-07T10:38:33;10.40;61.70
78289;DHT22;67539;48.752;12.922;2023-04-07T10:41:30;10.50;63.70
78289;DHT22;67539;48.752;12.922;2023-04-07T10:43:59;10.60;63.10
78289;DHT22;67539;48.752;12.922;2023-04-07T10:47:01;10.70;64.00
78289;DHT22;67539;48.752;12.922;2023-04-07T10:49:29;10.90;64.10
78289;DHT22;67539;48.752;12.922;2023-04-07T10:52:24;10.90;64.10
78289;DHT22;67539;48.752;12.922;2023-04-07T10:55:29;11.00;62.00
78289;DHT22;67539;48.752;12.922;2023-04-07T10:58:17;11.10;61.20
78289;DHT22;67539;48.752;12.922;2023-04-07T11:01:17;11.20;59.80
78289;DHT22;67539;48.752;12.922;2023-04-07T11:03:58;11.10;61.50
78289;DHT22;67539;48.752;12.922;2023-04-07T11:06:27;11.20;61.70
78289;DHT22;67539;48.752;12.922;2023-04-07T11:08:56;11.30;59.20
78289;DHT22;67539;48.752;12.922;2023-04-07T11:11:39;11.30;61.60
78289;DHT22;67539;48.752;12.922;2023-04-07T11:14:08;11.40;61.40
78289;DHT22;67539;48.752;12.922;2023-04-07T11:16:38;11.60;61.30
78289;DHT22;67539;48.752;12.922;2023-04-07T11:19:07;11.70;56.40
78289;DHT22;67539;48.752;12.922;2023-04-07T11:21:35;11.80;56.20
78289;DHT22;67539;48.752;12.922;2023-04-07T11:24:05;11.60;53.50
78289;DHT22;67539;48.752;12.922;2023-04-07T11:26:37;11.60;53.40
78289;DHT22;67539;48.752;12.922;2023-04-07T11:29:06;11.70;53.60
78289;DHT22;67539;48.752;12.922;2023-04-07T11:31:35;11.60;53.80
78289;DHT22;67539;48.752;12.922;2023-04-07T11:34:04;11.60;53.40
78289;DHT22;67539;48.752;12.922;2023-04-07T11:36:33;11.80;51.40
78289;DHT22;67539;48.752;12.922;2023-04-07T11:39:04;11.90;50.50
78289;DHT22;67539;48.752;12.922;2023-04-07T11:41:32;12.00;50.80
78289;DHT22;67539;48.752;12.922;2023-04-07T11:44:13;12.10;48.30
78289;DHT22;67539;48.752;12.922;2023-04-07T11:46:52;12.20;49.70
78289;DHT22;67539;48.752;12.922;2023-04-07T11:49:20;12.30;52.40
78289;DHT22;67539;48.752;12.922;2023-04-07T11:51:57;12.40;50.70
78289;DHT22;67539;48.752;12.922;2023-04-07T11:54:27;12.50;49.90
78289;DHT22;67539;48.752;12.922;2023-04-07T11:56:55;12.50;48.60
78289;DHT22;67539;48.752;12.922;2023-04-07T11:59:24;12.40;48.00
78289;DHT22;67539;48.752;12.922;2023-04-07T12:01:52;12.30;48.10
78289;DHT22;67539;48.752;12.922;2023-04-07T12:04:23;12.20;47.20
78289;DHT22;67539;48.752;12.922;2023-04-07T12:06:52;12.20;47.50
78289;DHT22;67539;48.752;12.922;2023-04-07T12:09:29;12.20;47.00
78289;DHT22;67539;48.752;12.922;2023-04-07T12:11:58;12.30;47.80
78289;DHT22;67539;48.752;12.922;2023-04-07T12:14:26;12.50;48.00
78289;DHT22;67539;48.752;12.922;2023-04-07T12:16:54;12.60;47.10
78289;DHT22;67539;48.752;12.922;2023-04-07T12:19:25;12.60;48.80
78289;DHT22;67539;48.752;12.922;2023-04-07T12:21:53;12.80;50.30
78289;DHT22;67539;48.752;12.922;2023-04-07T12:24:21;13.00;46.00
78289;DHT22;67539;48.752;12.922;2023-04-07T12:26:51;12.90;45.30
78289;DHT22;67539;48.752;12.922;2023-04-07T12:29:20;12.90;47.20
78289;DHT22;67539;48.752;12.922;2023-04-07T12:31:48;13.00;49.70
78289;DHT22;67539;48.752;12.922;2023-04-07T12:34:17;13.20;51.00
78289;DHT22;67539;48.752;12.922;2023-04-07T12:36:46;13.50;48.90
78289;DHT22;67539;48.752;12.922;2023-04-07T12:39:14;13.70;50.30
78289;DHT22;67539;48.752;12.922;2023-04-07T12:41:42;13.90;49.80
78289;DHT22;67539;48.752;12.922;2023-04-07T12:44:13;14.00;48.90
78289;DHT22;67539;48.752;12.922;2023-04-07T12:46:41;14.10;45.80
78289;DHT22;67539;48.752;12.922;2023-04-07T12:49:09;14.10;44.30
78289;DHT22;67539;48.752;12.922;2023-04-07T12:51:37;14.00;46.40
78289;DHT22;67539;48.752;12.922;2023-04-07T12:54:06;14.10;48.10
78289;DHT22;67539;48.752;12.922;2023-04-07T12:56:35;14.30;47.50
78289;DHT22;67539;48.752;12.922;2023-04-07T12:59:03;14.50;47.50
78289;DHT22;67539;48.752;12.922;2023-04-07T13:01:33;14.50;43.80
78289;DHT22;67539;48.752;12.922;2023-04-07T13:04:03;14.30;44.50
78289;DHT22;67539;48.752;12.922;2023-04-07T13:06:31;14.40;44.50
78289;DHT22;67539;48.752;12.922;2023-04-07T13:08:59;14.40;43.20
78289;DHT22;67539;48.752;12.922;2023-04-07T13:11:27;14.40;43.10
78289;DHT22;67539;48.752;12.922;2023-04-07T13:13:55;14.60;43.80
78289;DHT22;67539;48.752;12.922;2023-04-07T13:16:26;14.70;45.50
78289;DHT22;67539;48.752;12.922;2023-04-07T13:18:56;14.90;44.90
78289;DHT22;67539;48.752;12.922;2023-04-07T13:21:24;15.10;45.80
78289;DHT22;67539;48.752;12.922;2023-04-07T13:24:13;15.30;44.80
78289;DHT22;67539;48.752;12.922;2023-04-07T13:26:42;15.60;45.20
78289;DHT22;67539;48.752;12.922;2023-04-07T13:29:10;15.90;43.20
78289;DHT22;67539;48.752;12.922;2023-04-07T13:31:38;16.00;41.00
78289;DHT22;67539;48.752;12.922;2023-04-07T13:34:07;16.00;40.50
78289;DHT22;67539;48.752;12.922;2023-04-07T13:36:35;16.00;41.10
78289;DHT22;67539;48.752;12.922;2023-04-07T13:39:03;15.40;39.50
78289;DHT22;67539;48.752;12.922;2023-04-07T13:41:33;15.30;40.40
78289;DHT22;67539;48.752;12.922;2023-04-07T13:44:01;15.40;41.10
78289;DHT22;67539;48.752;12.922;2023-04-07T13:46:29;15.60;40.70
78289;DHT22;67539;48.752;12.922;2023-04-07T13:48:57;15.90;40.90
78289;DHT22;67539;48.752;12.922;2023-04-07T13:51:27;16.30;40.10
78289;DHT22;67539;48.752;12.922;2023-04-07T13:53:55;16.40;39.20
78289;DHT22;67539;48.752;12.922;2023-04-07T13:56:23;16.10;38.50
78289;DHT22;67539;48.752;12.922;2023-04-07T13:58:50;16.00;39.40
78289;DHT22;67539;48.752;12.922;2023-04-07T14:01:19;16.00;38.70
78289;DHT22;67539;48.752;12.922;2023-04-07T14:03:47;16.10;39.80
78289;DHT22;67539;48.752;12.922;2023-04-07T14:06:16;16.30;38.20
78289;DHT22;67539;48.752;12.922;2023-04-07T14:08:49;16.50;38.50
78289;DHT22;67539;48.752;12.922;2023-04-07T14:11:18;16.70;37.40
78289;DHT22;67539;48.752;12.922;2023-04-07T14:13:46;17.20;39.80
78289;DHT22;67539;48.752;12.922;2023-04-07T14:16:15;17.80;40.80
78289;DHT22;67539;48.752;12.922;2023-04-07T14:18:43;18.30;36.70
78289;DHT22;67539;48.752;12.922;2023-04-07T14:21:12;18.40;37.30
78289;DHT22;67539;48.752;12.922;2023-04-07T14:23:40;17.90;35.10
78289;DHT22;67539;48.752;12.922;2023-04-07T14:26:10;17.30;36.50
78289;DHT22;67539;48.752;12.922;2023-04-07T14:28:39;17.00;36.70
78289;DHT22;67539;48.752;12.922;2023-04-07T14:31:11;16.80;36.80
78289;DHT22;67539;48.752;12.922;2023-04-07T14:33:40;16.70;37.00
78289;DHT22;67539;48.752;12.922;2023-04-07T14:36:09;16.60;37.30
78289;DHT22;67539;48.752;12.922;2023-04-07T14:38:37;16.60;38.00
78289;DHT22;67539;48.752;12.922;2023-04-07T14:41:05;16.80;37.80
78289;DHT22;67539;48.752;12.922;2023-04-07T14:43:37;17.20;38.70
78289;DHT22;67539;48.752;12.922;2023-04-07T14:46:06;17.70;39.00
78289;DHT22;67539;48.752;12.922;2023-04-07T14:48:35;17.70;36.30
78289;DHT22;67539;48.752;12.922;2023-04-07T14:51:09;17.50;36.20
78289;DHT22;67539;48.752;12.922;2023-04-07T14:53:38;17.50;37.10
78289;DHT22;67539;48.752;12.922;2023-04-07T14:56:07;17.50;36.30
78289;DHT22;67539;48.752;12.922;2023-04-07T14:58:37;17.80;37.30
78289;DHT22;67539;48.752;12.922;2023-04-07T15:01:07;18.00;37.30
78289;DHT22;67539;48.752;12.922;2023-04-07T15:03:35;17.70;36.00
78289;DHT22;67539;48.752;12.922;2023-04-07T15:06:05;17.70;37.80
78289;DHT22;67539;48.752;12.922;2023-04-07T15:08:34;17.80;37.30
78289;DHT22;67539;48.752;12.922;2023-04-07T15:11:03;17.80;37.30
78289;DHT22;67539;48.752;12.922;2023-04-07T15:13:31;17.80;37.00
78289;DHT22;67539;48.752;12.922;2023-04-07T15:16:07;17.40;37.30
78289;DHT22;67539;48.752;12.922;2023-04-07T15:18:37;17.10;37.10
78289;DHT22;67539;48.752;12.922;2023-04-07T15:21:05;16.70;37.50
78289;DHT22;67539;48.752;12.922;2023-04-07T15:23:33;16.00;38.20
78289;DHT22;67539;48.752;12.922;2023-04-07T15:26:03;15.70;39.60
78289;DHT22;67539;48.752;12.922;2023-04-07T15:28:31;15.70;40.20
78289;DHT22;67539;48.752;12.922;2023-04-07T15:30:59;15.80;40.60
78289;DHT22;67539;48.752;12.922;2023-04-07T15:33:29;15.70;41.50
78289;DHT22;67539;48.752;12.922;2023-04-07T15:35:57;15.50;39.70
78289;DHT22;67539;48.752;12.922;2023-04-07T15:38:27;15.30;39.40
78289;DHT22;67539;48.752;12.922;2023-04-07T15:40:55;15.10;40.30